LIMJ/GOA METAR and TAF weather

Enter ICAO airport designator
Station Type Date Time Source
LIMJ METAR 2024/04/18 06:20 UTC NOAA

LIMJ 180620Z 03012KT 9999 FEW025TCU 13/M00 Q1006


Station Type Date Time Source
LIMJ Decoded METAR 2024/04/18 06:20 UTC NOAA

Genova / Sestri, Italy (LIMJ) 44-25N 008-51E 3M
Apr 18, 2024 - 02:20 AM EDT / 2024.04.18 0620 UTC
Wind: from the NNE (030 degrees) at 14 MPH (12 KT):0
Visibility: greater than 7 mile(s):0
Sky conditions: mostly clear
Weather: Towering cumulus clouds observed
Temperature: 55 F (13 C)
Dew Point: 32 F (0 C)
Relative Humidity: 40%
Pressure (altimeter): 29.71 in. Hg (1006 hPa)
ob: LIMJ 180620Z 03012KT 9999 FEW025TCU 13/M00 Q1006
cycle: 6

Station Type Date Time Source
LIMJ TAF 2024/04/18 18:22 UTC NOAA